KPNM

Princeton Municipal Airport

Princeton, Minnesota, USA
METAR KPNM 250516Z AUTO 16008KT 10SM CLR 22/17 A2985 RMK AO2
Observed Flight Rules
May-25 @ 05:16 UTC (10 minutes ago) Visual Flight Rules
Wind Visibility Clouds
160° at 8 knots 10 miles
  • Clear skies
Temperatures Readings
Current 22°C / 72°F
Dewpoint 17°C / 63°F
Humidity 73%
Altimeter 29.85" Hg
Pressure 1011 hPa
Elevation 298
METAR KPNM 250516Z AUTO 16008KT 10SM CLR 22/17 A2985 RMK AO2
Observed Flight Rules
May-25 @ 05:16 UTC
(10 minutes ago)
VFR
Wind Visibility
160° at 8 knots 10 miles
Clouds
  • Clear skies
Temperature Dewpoint
22°C / 72°F 17°C / 63°F
Humidity Altimeter Pressure
73% 29.85" Hg 1011 hPa